sensor_id;sensor_type;location;lat;lon;timestamp;P1;durP1;ratioP1;P2;durP2;ratioP2
50968;SDS011;36982;51.474;7.228;2023-03-20T00:00:27;23.67;;;14.87;;
50968;SDS011;36982;51.474;7.228;2023-03-20T00:02:59;22.40;;;14.47;;
50968;SDS011;36982;51.474;7.228;2023-03-20T00:05:25;22.30;;;14.40;;
50968;SDS011;36982;51.474;7.228;2023-03-20T00:07:52;25.77;;;15.93;;
50968;SDS011;36982;51.474;7.228;2023-03-20T00:10:19;23.93;;;15.87;;
50968;SDS011;36982;51.474;7.228;2023-03-20T00:12:47;25.70;;;16.13;;
50968;SDS011;36982;51.474;7.228;2023-03-20T00:15:17;23.90;;;16.07;;
50968;SDS011;36982;51.474;7.228;2023-03-20T00:17:54;24.60;;;16.53;;
50968;SDS011;36982;51.474;7.228;2023-03-20T00:20:20;23.97;;;16.77;;
50968;SDS011;36982;51.474;7.228;2023-03-20T00:22:46;24.80;;;16.87;;
50968;SDS011;36982;51.474;7.228;2023-03-20T00:25:13;24.90;;;16.43;;
50968;SDS011;36982;51.474;7.228;2023-03-20T00:27:40;26.20;;;17.77;;
50968;SDS011;36982;51.474;7.228;2023-03-20T00:32:50;28.03;;;17.00;;
50968;SDS011;36982;51.474;7.228;2023-03-20T00:35:21;25.20;;;16.57;;
50968;SDS011;36982;51.474;7.228;2023-03-20T00:37:52;22.37;;;15.07;;
50968;SDS011;36982;51.474;7.228;2023-03-20T00:40:18;21.37;;;15.20;;
50968;SDS011;36982;51.474;7.228;2023-03-20T00:42:45;24.30;;;15.03;;
50968;SDS011;36982;51.474;7.228;2023-03-20T00:45:15;23.80;;;15.33;;
50968;SDS011;36982;51.474;7.228;2023-03-20T00:47:43;23.30;;;15.90;;
50968;SDS011;36982;51.474;7.228;2023-03-20T00:50:13;25.40;;;16.43;;
50968;SDS011;36982;51.474;7.228;2023-03-20T00:52:41;23.23;;;16.37;;
50968;SDS011;36982;51.474;7.228;2023-03-20T00:55:08;26.13;;;16.83;;
50968;SDS011;36982;51.474;7.228;2023-03-20T00:57:37;27.70;;;16.87;;
50968;SDS011;36982;51.474;7.228;2023-03-20T01:00:25;26.80;;;16.23;;
50968;SDS011;36982;51.474;7.228;2023-03-20T01:02:52;24.93;;;16.63;;
50968;SDS011;36982;51.474;7.228;2023-03-20T01:05:20;22.97;;;14.90;;
50968;SDS011;36982;51.474;7.228;2023-03-20T01:07:46;21.40;;;13.97;;
50968;SDS011;36982;51.474;7.228;2023-03-20T01:10:12;21.57;;;13.97;;
50968;SDS011;36982;51.474;7.228;2023-03-20T01:12:39;21.50;;;13.53;;
50968;SDS011;36982;51.474;7.228;2023-03-20T01:15:14;21.80;;;14.03;;
50968;SDS011;36982;51.474;7.228;2023-03-20T01:17:40;22.60;;;13.90;;
50968;SDS011;36982;51.474;7.228;2023-03-20T01:20:09;23.07;;;14.23;;
50968;SDS011;36982;51.474;7.228;2023-03-20T01:22:39;20.07;;;13.80;;
50968;SDS011;36982;51.474;7.228;2023-03-20T01:25:05;20.40;;;13.63;;
50968;SDS011;36982;51.474;7.228;2023-03-20T01:27:31;20.93;;;13.30;;
50968;SDS011;36982;51.474;7.228;2023-03-20T01:29:57;18.57;;;12.77;;
50968;SDS011;36982;51.474;7.228;2023-03-20T01:32:22;18.50;;;13.17;;
50968;SDS011;36982;51.474;7.228;2023-03-20T01:34:48;18.33;;;12.43;;
50968;SDS011;36982;51.474;7.228;2023-03-20T01:37:17;16.50;;;11.40;;
50968;SDS011;36982;51.474;7.228;2023-03-20T01:39:48;14.73;;;10.67;;
50968;SDS011;36982;51.474;7.228;2023-03-20T01:42:15;17.03;;;11.80;;
50968;SDS011;36982;51.474;7.228;2023-03-20T01:44:41;18.30;;;11.90;;
50968;SDS011;36982;51.474;7.228;2023-03-20T01:47:14;16.57;;;11.30;;
50968;SDS011;36982;51.474;7.228;2023-03-20T01:55:28;19.57;;;12.43;;
50968;SDS011;36982;51.474;7.228;2023-03-20T01:57:55;18.77;;;11.40;;
50968;SDS011;36982;51.474;7.228;2023-03-20T02:00:22;17.23;;;11.17;;
50968;SDS011;36982;51.474;7.228;2023-03-20T02:02:48;16.73;;;11.33;;
50968;SDS011;36982;51.474;7.228;2023-03-20T02:05:14;16.50;;;10.73;;
50968;SDS011;36982;51.474;7.228;2023-03-20T02:07:44;18.70;;;11.67;;
50968;SDS011;36982;51.474;7.228;2023-03-20T02:10:15;16.10;;;11.17;;
50968;SDS011;36982;51.474;7.228;2023-03-20T02:12:42;14.50;;;9.70;;
50968;SDS011;36982;51.474;7.228;2023-03-20T02:15:09;13.40;;;9.37;;
50968;SDS011;36982;51.474;7.228;2023-03-20T02:17:36;14.80;;;9.57;;
50968;SDS011;36982;51.474;7.228;2023-03-20T02:23:10;11.33;;;8.43;;
50968;SDS011;36982;51.474;7.228;2023-03-20T02:26:02;12.57;;;8.20;;
50968;SDS011;36982;51.474;7.228;2023-03-20T02:28:55;11.50;;;8.03;;
50968;SDS011;36982;51.474;7.228;2023-03-20T02:42:32;10.13;;;7.13;;
50968;SDS011;36982;51.474;7.228;2023-03-20T02:50:03;10.43;;;6.50;;
50968;SDS011;36982;51.474;7.228;2023-03-20T03:00:31;8.27;;;5.50;;
50968;SDS011;36982;51.474;7.228;2023-03-20T03:03:11;8.17;;;4.57;;
50968;SDS011;36982;51.474;7.228;2023-03-20T03:06:02;7.93;;;4.70;;
50968;SDS011;36982;51.474;7.228;2023-03-20T03:08:43;5.83;;;3.87;;
50968;SDS011;36982;51.474;7.228;2023-03-20T03:11:13;7.83;;;4.60;;
50968;SDS011;36982;51.474;7.228;2023-03-20T03:13:41;8.50;;;4.80;;
50968;SDS011;36982;51.474;7.228;2023-03-20T03:16:13;5.90;;;3.97;;
50968;SDS011;36982;51.474;7.228;2023-03-20T03:18:43;7.17;;;3.83;;
50968;SDS011;36982;51.474;7.228;2023-03-20T03:21:10;5.20;;;3.50;;
50968;SDS011;36982;51.474;7.228;2023-03-20T03:23:46;5.37;;;3.40;;
50968;SDS011;36982;51.474;7.228;2023-03-20T03:26:14;5.33;;;3.70;;
50968;SDS011;36982;51.474;7.228;2023-03-20T03:28:45;5.50;;;3.90;;
50968;SDS011;36982;51.474;7.228;2023-03-20T03:31:15;5.93;;;4.00;;
50968;SDS011;36982;51.474;7.228;2023-03-20T03:33:44;5.97;;;4.13;;
50968;SDS011;36982;51.474;7.228;2023-03-20T03:36:21;7.00;;;4.10;;
50968;SDS011;36982;51.474;7.228;2023-03-20T03:39:17;5.80;;;3.80;;
50968;SDS011;36982;51.474;7.228;2023-03-20T03:41:47;5.30;;;3.80;;
50968;SDS011;36982;51.474;7.228;2023-03-20T03:47:02;5.27;;;3.27;;
50968;SDS011;36982;51.474;7.228;2023-03-20T03:49:47;5.33;;;3.73;;
50968;SDS011;36982;51.474;7.228;2023-03-20T03:52:19;7.00;;;4.23;;
50968;SDS011;36982;51.474;7.228;2023-03-20T03:54:58;5.80;;;3.70;;
50968;SDS011;36982;51.474;7.228;2023-03-20T03:57:45;5.70;;;3.67;;
50968;SDS011;36982;51.474;7.228;2023-03-20T04:00:25;6.00;;;3.93;;
50968;SDS011;36982;51.474;7.228;2023-03-20T04:02:53;6.33;;;4.10;;
50968;SDS011;36982;51.474;7.228;2023-03-20T04:05:20;5.67;;;4.17;;
50968;SDS011;36982;51.474;7.228;2023-03-20T04:07:51;6.30;;;4.50;;
50968;SDS011;36982;51.474;7.228;2023-03-20T04:10:19;8.70;;;5.20;;
50968;SDS011;36982;51.474;7.228;2023-03-20T04:12:45;9.27;;;5.43;;
50968;SDS011;36982;51.474;7.228;2023-03-20T04:15:12;9.07;;;5.57;;
50968;SDS011;36982;51.474;7.228;2023-03-20T04:17:38;10.13;;;6.50;;
50968;SDS011;36982;51.474;7.228;2023-03-20T04:20:04;9.80;;;6.57;;
50968;SDS011;36982;51.474;7.228;2023-03-20T04:22:31;10.00;;;6.07;;
50968;SDS011;36982;51.474;7.228;2023-03-20T04:24:59;10.20;;;6.53;;
50968;SDS011;36982;51.474;7.228;2023-03-20T04:27:26;9.50;;;6.57;;
50968;SDS011;36982;51.474;7.228;2023-03-20T04:29:52;9.57;;;6.63;;
50968;SDS011;36982;51.474;7.228;2023-03-20T04:32:18;10.67;;;6.77;;
50968;SDS011;36982;51.474;7.228;2023-03-20T04:34:44;11.03;;;6.97;;
50968;SDS011;36982;51.474;7.228;2023-03-20T04:37:10;11.23;;;7.27;;
50968;SDS011;36982;51.474;7.228;2023-03-20T04:39:35;10.47;;;6.83;;
50968;SDS011;36982;51.474;7.228;2023-03-20T04:42:01;12.57;;;8.23;;
50968;SDS011;36982;51.474;7.228;2023-03-20T04:44:28;13.83;;;7.37;;
50968;SDS011;36982;51.474;7.228;2023-03-20T04:46:54;13.03;;;8.17;;
50968;SDS011;36982;51.474;7.228;2023-03-20T04:49:20;12.87;;;7.63;;
50968;SDS011;36982;51.474;7.228;2023-03-20T04:51:45;11.77;;;7.97;;
50968;SDS011;36982;51.474;7.228;2023-03-20T04:54:11;12.40;;;8.10;;
50968;SDS011;36982;51.474;7.228;2023-03-20T04:56:37;13.07;;;8.77;;
50968;SDS011;36982;51.474;7.228;2023-03-20T04:59:02;13.10;;;8.73;;
50968;SDS011;36982;51.474;7.228;2023-03-20T05:01:28;13.63;;;8.93;;
50968;SDS011;36982;51.474;7.228;2023-03-20T05:03:53;17.70;;;9.17;;
50968;SDS011;36982;51.474;7.228;2023-03-20T05:06:24;15.07;;;8.90;;
50968;SDS011;36982;51.474;7.228;2023-03-20T05:08:51;15.63;;;9.83;;
50968;SDS011;36982;51.474;7.228;2023-03-20T05:11:16;15.17;;;10.07;;
50968;SDS011;36982;51.474;7.228;2023-03-20T05:13:42;14.40;;;8.50;;
50968;SDS011;36982;51.474;7.228;2023-03-20T05:16:07;15.47;;;9.63;;
50968;SDS011;36982;51.474;7.228;2023-03-20T05:18:33;16.97;;;10.17;;
50968;SDS011;36982;51.474;7.228;2023-03-20T05:20:59;16.23;;;9.07;;
50968;SDS011;36982;51.474;7.228;2023-03-20T05:23:25;15.67;;;9.17;;
50968;SDS011;36982;51.474;7.228;2023-03-20T05:25:51;14.93;;;9.37;;
50968;SDS011;36982;51.474;7.228;2023-03-20T05:28:16;15.93;;;9.30;;
50968;SDS011;36982;51.474;7.228;2023-03-20T05:30:42;18.30;;;9.80;;
50968;SDS011;36982;51.474;7.228;2023-03-20T05:33:07;16.60;;;9.30;;
50968;SDS011;36982;51.474;7.228;2023-03-20T05:35:33;16.53;;;9.40;;
50968;SDS011;36982;51.474;7.228;2023-03-20T05:37:58;16.87;;;9.83;;
50968;SDS011;36982;51.474;7.228;2023-03-20T05:40:24;16.43;;;10.00;;
50968;SDS011;36982;51.474;7.228;2023-03-20T05:42:50;17.73;;;10.20;;
50968;SDS011;36982;51.474;7.228;2023-03-20T05:45:16;15.37;;;9.57;;
50968;SDS011;36982;51.474;7.228;2023-03-20T05:47:42;15.80;;;9.47;;
50968;SDS011;36982;51.474;7.228;2023-03-20T05:50:08;15.40;;;9.30;;
50968;SDS011;36982;51.474;7.228;2023-03-20T05:52:35;17.10;;;9.27;;
50968;SDS011;36982;51.474;7.228;2023-03-20T05:55:00;15.20;;;9.73;;
50968;SDS011;36982;51.474;7.228;2023-03-20T05:57:26;12.67;;;8.73;;
50968;SDS011;36982;51.474;7.228;2023-03-20T05:59:52;15.93;;;9.87;;
50968;SDS011;36982;51.474;7.228;2023-03-20T06:02:17;15.37;;;9.30;;
50968;SDS011;36982;51.474;7.228;2023-03-20T06:04:43;14.57;;;8.87;;
50968;SDS011;36982;51.474;7.228;2023-03-20T06:07:09;15.23;;;8.90;;
50968;SDS011;36982;51.474;7.228;2023-03-20T06:09:34;14.73;;;9.10;;
50968;SDS011;36982;51.474;7.228;2023-03-20T06:12:00;16.27;;;9.27;;
50968;SDS011;36982;51.474;7.228;2023-03-20T06:14:25;17.57;;;9.37;;
50968;SDS011;36982;51.474;7.228;2023-03-20T06:16:51;15.23;;;9.17;;
50968;SDS011;36982;51.474;7.228;2023-03-20T06:19:18;18.53;;;9.17;;
50968;SDS011;36982;51.474;7.228;2023-03-20T06:21:44;13.80;;;8.67;;
50968;SDS011;36982;51.474;7.228;2023-03-20T06:24:10;13.97;;;8.80;;
50968;SDS011;36982;51.474;7.228;2023-03-20T06:26:35;14.07;;;8.37;;
50968;SDS011;36982;51.474;7.228;2023-03-20T06:29:01;14.57;;;8.57;;
50968;SDS011;36982;51.474;7.228;2023-03-20T06:31:27;12.47;;;8.17;;
50968;SDS011;36982;51.474;7.228;2023-03-20T06:33:52;14.30;;;7.83;;
50968;SDS011;36982;51.474;7.228;2023-03-20T06:36:18;12.67;;;8.00;;
50968;SDS011;36982;51.474;7.228;2023-03-20T06:38:44;13.43;;;7.93;;
50968;SDS011;36982;51.474;7.228;2023-03-20T06:41:09;10.37;;;7.40;;
50968;SDS011;36982;51.474;7.228;2023-03-20T06:43:35;13.03;;;7.80;;
50968;SDS011;36982;51.474;7.228;2023-03-20T06:46:01;11.80;;;7.67;;
50968;SDS011;36982;51.474;7.228;2023-03-20T06:48:27;11.27;;;7.27;;
50968;SDS011;36982;51.474;7.228;2023-03-20T06:50:52;12.23;;;7.10;;
50968;SDS011;36982;51.474;7.228;2023-03-20T06:53:18;11.83;;;7.10;;
50968;SDS011;36982;51.474;7.228;2023-03-20T06:55:50;11.10;;;6.83;;
50968;SDS011;36982;51.474;7.228;2023-03-20T06:58:15;11.43;;;6.23;;
50968;SDS011;36982;51.474;7.228;2023-03-20T07:00:42;11.07;;;6.80;;
50968;SDS011;36982;51.474;7.228;2023-03-20T07:03:08;9.90;;;6.97;;
50968;SDS011;36982;51.474;7.228;2023-03-20T07:05:34;11.10;;;6.87;;
50968;SDS011;36982;51.474;7.228;2023-03-20T07:07:59;9.37;;;6.50;;
50968;SDS011;36982;51.474;7.228;2023-03-20T07:10:25;10.80;;;5.83;;
50968;SDS011;36982;51.474;7.228;2023-03-20T07:12:53;9.73;;;6.20;;
50968;SDS011;36982;51.474;7.228;2023-03-20T07:15:19;11.13;;;6.23;;
50968;SDS011;36982;51.474;7.228;2023-03-20T07:17:45;10.50;;;6.43;;
50968;SDS011;36982;51.474;7.228;2023-03-20T07:20:11;9.30;;;6.33;;
50968;SDS011;36982;51.474;7.228;2023-03-20T07:22:38;11.27;;;5.90;;
50968;SDS011;36982;51.474;7.228;2023-03-20T07:25:05;11.83;;;6.00;;
50968;SDS011;36982;51.474;7.228;2023-03-20T07:27:33;10.27;;;6.10;;
50968;SDS011;36982;51.474;7.228;2023-03-20T07:30:00;12.17;;;6.20;;
50968;SDS011;36982;51.474;7.228;2023-03-20T07:32:26;9.57;;;5.80;;
50968;SDS011;36982;51.474;7.228;2023-03-20T07:34:51;11.27;;;6.00;;
50968;SDS011;36982;51.474;7.228;2023-03-20T07:37:17;12.20;;;6.10;;
50968;SDS011;36982;51.474;7.228;2023-03-20T07:39:43;10.80;;;5.90;;
50968;SDS011;36982;51.474;7.228;2023-03-20T07:42:08;9.80;;;5.10;;
50968;SDS011;36982;51.474;7.228;2023-03-20T07:44:34;9.97;;;5.20;;
50968;SDS011;36982;51.474;7.228;2023-03-20T07:46:59;7.60;;;4.93;;
50968;SDS011;36982;51.474;7.228;2023-03-20T07:49:25;7.97;;;4.93;;
50968;SDS011;36982;51.474;7.228;2023-03-20T07:51:51;6.87;;;4.80;;
50968;SDS011;36982;51.474;7.228;2023-03-20T07:54:18;9.70;;;5.53;;
50968;SDS011;36982;51.474;7.228;2023-03-20T07:56:44;8.00;;;5.17;;
50968;SDS011;36982;51.474;7.228;2023-03-20T07:59:11;12.37;;;6.13;;
50968;SDS011;36982;51.474;7.228;2023-03-20T08:01:37;9.03;;;5.90;;
50968;SDS011;36982;51.474;7.228;2023-03-20T08:04:02;7.40;;;5.10;;
50968;SDS011;36982;51.474;7.228;2023-03-20T08:06:28;8.17;;;5.17;;
50968;SDS011;36982;51.474;7.228;2023-03-20T08:11:25;8.87;;;5.53;;
50968;SDS011;36982;51.474;7.228;2023-03-20T08:13:51;7.70;;;4.60;;
50968;SDS011;36982;51.474;7.228;2023-03-20T08:16:17;8.73;;;4.83;;
50968;SDS011;36982;51.474;7.228;2023-03-20T08:18:42;8.07;;;4.73;;
50968;SDS011;36982;51.474;7.228;2023-03-20T08:21:08;8.03;;;4.97;;
50968;SDS011;36982;51.474;7.228;2023-03-20T08:23:34;11.17;;;5.30;;
50968;SDS011;36982;51.474;7.228;2023-03-20T08:25:59;10.37;;;5.13;;
50968;SDS011;36982;51.474;7.228;2023-03-20T08:28:25;8.40;;;5.37;;
50968;SDS011;36982;51.474;7.228;2023-03-20T08:30:51;9.20;;;4.70;;
50968;SDS011;36982;51.474;7.228;2023-03-20T08:33:16;8.40;;;5.00;;
50968;SDS011;36982;51.474;7.228;2023-03-20T08:35:42;8.60;;;5.17;;
50968;SDS011;36982;51.474;7.228;2023-03-20T08:38:09;11.57;;;6.13;;
50968;SDS011;36982;51.474;7.228;2023-03-20T08:40:39;13.00;;;5.43;;
50968;SDS011;36982;51.474;7.228;2023-03-20T08:43:06;11.23;;;5.47;;
50968;SDS011;36982;51.474;7.228;2023-03-20T08:45:31;9.57;;;5.47;;
50968;SDS011;36982;51.474;7.228;2023-03-20T08:47:57;12.27;;;6.23;;
50968;SDS011;36982;51.474;7.228;2023-03-20T08:50:22;10.77;;;5.20;;
50968;SDS011;36982;51.474;7.228;2023-03-20T08:52:48;12.70;;;5.43;;
50968;SDS011;36982;51.474;7.228;2023-03-20T08:55:14;10.27;;;4.70;;
50968;SDS011;36982;51.474;7.228;2023-03-20T08:57:40;8.03;;;4.70;;
50968;SDS011;36982;51.474;7.228;2023-03-20T09:00:06;8.17;;;4.57;;
50968;SDS011;36982;51.474;7.228;2023-03-20T09:02:34;8.70;;;4.77;;
50968;SDS011;36982;51.474;7.228;2023-03-20T09:05:00;10.23;;;4.63;;
50968;SDS011;36982;51.474;7.228;2023-03-20T09:07:26;6.57;;;4.17;;
50968;SDS011;36982;51.474;7.228;2023-03-20T09:09:51;8.80;;;4.17;;
50968;SDS011;36982;51.474;7.228;2023-03-20T09:12:17;8.97;;;4.60;;
50968;SDS011;36982;51.474;7.228;2023-03-20T09:14:43;13.23;;;5.00;;
50968;SDS011;36982;51.474;7.228;2023-03-20T09:17:08;8.07;;;4.20;;
50968;SDS011;36982;51.474;7.228;2023-03-20T09:19:34;6.80;;;3.33;;
50968;SDS011;36982;51.474;7.228;2023-03-20T09:22:03;8.57;;;4.00;;
50968;SDS011;36982;51.474;7.228;2023-03-20T09:24:29;6.67;;;3.83;;
50968;SDS011;36982;51.474;7.228;2023-03-20T09:26:55;8.27;;;4.03;;
50968;SDS011;36982;51.474;7.228;2023-03-20T09:29:20;7.37;;;3.60;;
50968;SDS011;36982;51.474;7.228;2023-03-20T09:31:46;9.10;;;3.93;;
50968;SDS011;36982;51.474;7.228;2023-03-20T09:34:12;8.27;;;4.20;;
50968;SDS011;36982;51.474;7.228;2023-03-20T09:36:37;5.93;;;3.90;;
50968;SDS011;36982;51.474;7.228;2023-03-20T09:39:03;7.70;;;3.90;;
50968;SDS011;36982;51.474;7.228;2023-03-20T09:41:28;8.80;;;4.40;;
50968;SDS011;36982;51.474;7.228;2023-03-20T09:44:08;8.33;;;4.00;;
50968;SDS011;36982;51.474;7.228;2023-03-20T09:55:20;7.97;;;4.23;;
50968;SDS011;36982;51.474;7.228;2023-03-20T09:57:55;5.13;;;3.43;;
50968;SDS011;36982;51.474;7.228;2023-03-20T10:00:25;6.80;;;4.00;;
50968;SDS011;36982;51.474;7.228;2023-03-20T10:03:03;7.03;;;3.93;;
50968;SDS011;36982;51.474;7.228;2023-03-20T10:05:36;10.40;;;4.10;;
50968;SDS011;36982;51.474;7.228;2023-03-20T10:08:09;9.30;;;3.83;;
50968;SDS011;36982;51.474;7.228;2023-03-20T10:19:31;5.77;;;3.07;;
50968;SDS011;36982;51.474;7.228;2023-03-20T10:25:23;5.57;;;3.13;;
50968;SDS011;36982;51.474;7.228;2023-03-20T10:27:57;6.93;;;2.70;;
50968;SDS011;36982;51.474;7.228;2023-03-20T10:30:37;7.00;;;2.20;;
50968;SDS011;36982;51.474;7.228;2023-03-20T10:33:31;4.67;;;1.87;;
50968;SDS011;36982;51.474;7.228;2023-03-20T10:39:01;5.60;;;1.90;;
50968;SDS011;36982;51.474;7.228;2023-03-20T10:41:46;6.53;;;1.93;;
50968;SDS011;36982;51.474;7.228;2023-03-20T10:44:30;3.70;;;1.47;;
50968;SDS011;36982;51.474;7.228;2023-03-20T10:47:03;5.43;;;1.90;;
50968;SDS011;36982;51.474;7.228;2023-03-20T10:49:55;4.20;;;1.60;;
50968;SDS011;36982;51.474;7.228;2023-03-20T10:52:26;4.73;;;1.80;;
50968;SDS011;36982;51.474;7.228;2023-03-20T10:54:59;3.63;;;1.40;;
50968;SDS011;36982;51.474;7.228;2023-03-20T10:57:30;3.00;;;1.40;;
50968;SDS011;36982;51.474;7.228;2023-03-20T11:00:01;3.50;;;1.37;;
50968;SDS011;36982;51.474;7.228;2023-03-20T11:02:29;5.40;;;1.83;;
50968;SDS011;36982;51.474;7.228;2023-03-20T11:04:58;2.07;;;1.30;;
50968;SDS011;36982;51.474;7.228;2023-03-20T11:07:33;5.53;;;2.37;;
50968;SDS011;36982;51.474;7.228;2023-03-20T11:12:34;5.00;;;1.93;;
50968;SDS011;36982;51.474;7.228;2023-03-20T11:15:03;4.57;;;1.87;;
50968;SDS011;36982;51.474;7.228;2023-03-20T11:17:39;6.10;;;1.80;;
50968;SDS011;36982;51.474;7.228;2023-03-20T11:20:05;4.80;;;1.70;;
50968;SDS011;36982;51.474;7.228;2023-03-20T11:22:32;3.63;;;1.73;;
50968;SDS011;36982;51.474;7.228;2023-03-20T11:25:00;3.17;;;1.80;;
50968;SDS011;36982;51.474;7.228;2023-03-20T11:27:27;5.53;;;2.00;;
50968;SDS011;36982;51.474;7.228;2023-03-20T11:29:55;3.93;;;1.90;;
50968;SDS011;36982;51.474;7.228;2023-03-20T11:35:13;5.97;;;2.00;;
50968;SDS011;36982;51.474;7.228;2023-03-20T11:38:13;3.50;;;1.97;;
50968;SDS011;36982;51.474;7.228;2023-03-20T11:40:41;4.93;;;2.07;;
50968;SDS011;36982;51.474;7.228;2023-03-20T11:43:11;6.03;;;2.30;;
50968;SDS011;36982;51.474;7.228;2023-03-20T11:45:39;5.43;;;2.07;;
50968;SDS011;36982;51.474;7.228;2023-03-20T11:48:15;4.03;;;1.60;;
50968;SDS011;36982;51.474;7.228;2023-03-20T11:50:42;7.00;;;2.03;;
50968;SDS011;36982;51.474;7.228;2023-03-20T11:59:03;3.87;;;2.13;;
50968;SDS011;36982;51.474;7.228;2023-03-20T12:01:44;5.40;;;2.10;;
50968;SDS011;36982;51.474;7.228;2023-03-20T12:04:20;7.10;;;2.00;;
50968;SDS011;36982;51.474;7.228;2023-03-20T12:09:41;6.33;;;2.00;;
50968;SDS011;36982;51.474;7.228;2023-03-20T12:17:39;6.23;;;2.10;;
50968;SDS011;36982;51.474;7.228;2023-03-20T12:25:24;5.07;;;2.23;;
50968;SDS011;36982;51.474;7.228;2023-03-20T12:33:51;5.70;;;2.37;;
50968;SDS011;36982;51.474;7.228;2023-03-20T12:36:35;4.03;;;2.10;;
50968;SDS011;36982;51.474;7.228;2023-03-20T12:39:08;7.27;;;2.67;;
50968;SDS011;36982;51.474;7.228;2023-03-20T12:42:01;5.10;;;2.30;;
50968;SDS011;36982;51.474;7.228;2023-03-20T12:50:20;5.60;;;2.30;;
50968;SDS011;36982;51.474;7.228;2023-03-20T12:53:21;4.47;;;2.10;;
50968;SDS011;36982;51.474;7.228;2023-03-20T12:55:57;5.37;;;2.20;;
50968;SDS011;36982;51.474;7.228;2023-03-20T13:01:26;5.50;;;2.17;;
50968;SDS011;36982;51.474;7.228;2023-03-20T13:07:00;6.37;;;2.43;;
50968;SDS011;36982;51.474;7.228;2023-03-20T13:15:35;4.83;;;1.97;;
50968;SDS011;36982;51.474;7.228;2023-03-20T13:21:33;4.27;;;1.70;;
50968;SDS011;36982;51.474;7.228;2023-03-20T13:24:26;5.37;;;1.83;;
50968;SDS011;36982;51.474;7.228;2023-03-20T13:33:15;5.03;;;1.80;;
50968;SDS011;36982;51.474;7.228;2023-03-20T13:38:34;2.23;;;1.40;;
50968;SDS011;36982;51.474;7.228;2023-03-20T13:41:05;5.00;;;1.50;;
50968;SDS011;36982;51.474;7.228;2023-03-20T13:43:38;4.60;;;1.73;;
50968;SDS011;36982;51.474;7.228;2023-03-20T13:46:11;4.40;;;1.60;;
50968;SDS011;36982;51.474;7.228;2023-03-20T13:48:42;3.93;;;1.30;;
50968;SDS011;36982;51.474;7.228;2023-03-20T14:02:14;3.83;;;1.77;;
50968;SDS011;36982;51.474;7.228;2023-03-20T14:04:42;4.77;;;2.23;;
50968;SDS011;36982;51.474;7.228;2023-03-20T14:13:03;4.23;;;2.00;;
50968;SDS011;36982;51.474;7.228;2023-03-20T14:15:34;6.10;;;2.10;;
50968;SDS011;36982;51.474;7.228;2023-03-20T14:18:02;6.30;;;1.70;;
50968;SDS011;36982;51.474;7.228;2023-03-20T14:20:31;4.80;;;1.80;;
50968;SDS011;36982;51.474;7.228;2023-03-20T14:23:04;5.20;;;2.03;;
50968;SDS011;36982;51.474;7.228;2023-03-20T14:25:33;7.80;;;1.90;;
50968;SDS011;36982;51.474;7.228;2023-03-20T14:35:48;5.60;;;2.00;;
50968;SDS011;36982;51.474;7.228;2023-03-20T14:38:34;7.23;;;1.83;;
50968;SDS011;36982;51.474;7.228;2023-03-20T14:41:14;5.33;;;2.27;;
50968;SDS011;36982;51.474;7.228;2023-03-20T14:46:41;3.33;;;2.00;;
50968;SDS011;36982;51.474;7.228;2023-03-20T14:49:23;7.07;;;2.50;;
50968;SDS011;36982;51.474;7.228;2023-03-20T14:54:53;5.33;;;2.00;;
50968;SDS011;36982;51.474;7.228;2023-03-20T14:57:32;3.23;;;1.70;;
50968;SDS011;36982;51.474;7.228;2023-03-20T14:59:58;5.03;;;2.30;;
50968;SDS011;36982;51.474;7.228;2023-03-20T15:02:28;5.07;;;2.37;;
50968;SDS011;36982;51.474;7.228;2023-03-20T15:04:58;5.33;;;2.40;;
50968;SDS011;36982;51.474;7.228;2023-03-20T15:07:25;4.93;;;2.23;;
50968;SDS011;36982;51.474;7.228;2023-03-20T15:09:55;6.20;;;2.30;;
50968;SDS011;36982;51.474;7.228;2023-03-20T15:12:24;4.77;;;2.70;;
50968;SDS011;36982;51.474;7.228;2023-03-20T15:14:58;5.20;;;2.33;;
50968;SDS011;36982;51.474;7.228;2023-03-20T15:17:31;6.10;;;2.60;;
50968;SDS011;36982;51.474;7.228;2023-03-20T15:20:11;4.77;;;2.50;;
50968;SDS011;36982;51.474;7.228;2023-03-20T15:22:49;5.73;;;2.30;;
50968;SDS011;36982;51.474;7.228;2023-03-20T15:25:21;5.00;;;2.30;;
50968;SDS011;36982;51.474;7.228;2023-03-20T15:27:49;4.80;;;2.33;;
50968;SDS011;36982;51.474;7.228;2023-03-20T15:30:17;5.83;;;2.00;;
50968;SDS011;36982;51.474;7.228;2023-03-20T15:32:45;7.43;;;2.93;;
50968;SDS011;36982;51.474;7.228;2023-03-20T15:35:13;5.10;;;2.40;;
50968;SDS011;36982;51.474;7.228;2023-03-20T15:37:43;7.00;;;2.87;;
50968;SDS011;36982;51.474;7.228;2023-03-20T15:40:29;5.63;;;2.40;;
50968;SDS011;36982;51.474;7.228;2023-03-20T15:45:30;7.33;;;2.80;;
50968;SDS011;36982;51.474;7.228;2023-03-20T15:48:05;5.30;;;2.70;;
50968;SDS011;36982;51.474;7.228;2023-03-20T15:50:54;6.83;;;2.93;;
50968;SDS011;36982;51.474;7.228;2023-03-20T15:53:28;5.17;;;2.63;;
50968;SDS011;36982;51.474;7.228;2023-03-20T15:55:57;6.17;;;2.70;;
50968;SDS011;36982;51.474;7.228;2023-03-20T15:58:28;6.43;;;2.70;;
50968;SDS011;36982;51.474;7.228;2023-03-20T16:00:56;4.97;;;2.43;;
50968;SDS011;36982;51.474;7.228;2023-03-20T16:03:23;7.57;;;3.23;;
50968;SDS011;36982;51.474;7.228;2023-03-20T16:05:51;6.80;;;2.73;;
50968;SDS011;36982;51.474;7.228;2023-03-20T16:08:27;7.23;;;2.80;;
50968;SDS011;36982;51.474;7.228;2023-03-20T16:10:55;5.53;;;3.03;;
50968;SDS011;36982;51.474;7.228;2023-03-20T16:13:23;5.77;;;3.00;;
50968;SDS011;36982;51.474;7.228;2023-03-20T16:15:51;7.63;;;2.90;;
50968;SDS011;36982;51.474;7.228;2023-03-20T16:18:18;4.13;;;3.10;;
50968;SDS011;36982;51.474;7.228;2023-03-20T16:20:50;8.33;;;3.40;;
50968;SDS011;36982;51.474;7.228;2023-03-20T16:23:30;5.47;;;2.70;;
50968;SDS011;36982;51.474;7.228;2023-03-20T16:25:59;9.70;;;3.43;;
50968;SDS011;36982;51.474;7.228;2023-03-20T16:28:27;6.83;;;2.80;;
50968;SDS011;36982;51.474;7.228;2023-03-20T16:31:02;8.77;;;2.80;;
50968;SDS011;36982;51.474;7.228;2023-03-20T16:33:32;8.47;;;2.70;;
50968;SDS011;36982;51.474;7.228;2023-03-20T16:35:59;11.03;;;3.03;;
50968;SDS011;36982;51.474;7.228;2023-03-20T16:38:27;7.23;;;3.17;;
50968;SDS011;36982;51.474;7.228;2023-03-20T16:40:55;9.33;;;3.27;;
50968;SDS011;36982;51.474;7.228;2023-03-20T16:43:45;8.57;;;3.30;;
50968;SDS011;36982;51.474;7.228;2023-03-20T16:46:16;10.63;;;3.30;;
50968;SDS011;36982;51.474;7.228;2023-03-20T16:49:13;8.37;;;2.90;;
50968;SDS011;36982;51.474;7.228;2023-03-20T16:51:59;5.63;;;2.70;;
50968;SDS011;36982;51.474;7.228;2023-03-20T16:54:31;6.63;;;3.10;;
50968;SDS011;36982;51.474;7.228;2023-03-20T16:56:59;4.73;;;2.50;;
50968;SDS011;36982;51.474;7.228;2023-03-20T16:59:27;6.43;;;2.63;;
50968;SDS011;36982;51.474;7.228;2023-03-20T17:01:54;7.00;;;2.90;;
50968;SDS011;36982;51.474;7.228;2023-03-20T17:04:42;8.57;;;3.20;;
50968;SDS011;36982;51.474;7.228;2023-03-20T17:07:17;8.00;;;2.83;;
50968;SDS011;36982;51.474;7.228;2023-03-20T17:09:52;7.23;;;2.77;;
50968;SDS011;36982;51.474;7.228;2023-03-20T17:12:18;5.23;;;2.63;;
50968;SDS011;36982;51.474;7.228;2023-03-20T17:14:44;8.13;;;2.70;;
50968;SDS011;36982;51.474;7.228;2023-03-20T17:17:11;7.87;;;2.70;;
50968;SDS011;36982;51.474;7.228;2023-03-20T17:19:37;11.57;;;3.20;;
50968;SDS011;36982;51.474;7.228;2023-03-20T17:22:12;7.13;;;2.70;;
50968;SDS011;36982;51.474;7.228;2023-03-20T17:24:44;6.50;;;2.60;;
50968;SDS011;36982;51.474;7.228;2023-03-20T17:27:13;5.73;;;2.57;;
50968;SDS011;36982;51.474;7.228;2023-03-20T17:29:39;8.67;;;3.60;;
50968;SDS011;36982;51.474;7.228;2023-03-20T17:32:09;7.87;;;2.90;;
50968;SDS011;36982;51.474;7.228;2023-03-20T17:34:42;5.73;;;2.53;;